createdAt,value
2023-05-13T00:00:21.162Z,10.93
2023-05-13T00:03:08.868Z,12.45
2023-05-13T00:05:36.316Z,13.18
2023-05-13T00:08:07.185Z,13.57
2023-05-13T00:10:34.847Z,8.32
2023-05-13T00:13:02.675Z,13.43
2023-05-13T00:15:30.053Z,13.95
2023-05-13T00:17:57.810Z,10.43
2023-05-13T00:20:25.269Z,10.85
2023-05-13T00:22:52.806Z,11.65
2023-05-13T00:25:20.093Z,11.93
2023-05-13T00:27:47.672Z,15.93
2023-05-13T00:30:15.070Z,16.92
2023-05-13T00:32:42.777Z,12.77
2023-05-13T00:35:10.444Z,16.10
2023-05-13T00:37:38.103Z,14.20
2023-05-13T00:40:05.676Z,12.35
2023-05-13T00:42:33.227Z,12.35
2023-05-13T00:45:00.566Z,11.25
2023-05-13T00:47:28.243Z,13.77
2023-05-13T00:49:55.592Z,12.02
2023-05-13T00:52:23.289Z,11.30
2023-05-13T00:54:50.614Z,8.85
2023-05-13T00:57:18.209Z,10.35
2023-05-13T00:59:45.592Z,12.55
2023-05-13T01:02:26.494Z,14.38
2023-05-13T01:05:03.718Z,11.98
2023-05-13T01:07:34.197Z,12.82
2023-05-13T01:10:04.273Z,16.02
2023-05-13T01:12:33.678Z,11.00
2023-05-13T01:15:04.063Z,15.07
2023-05-13T01:17:50.400Z,9.63
2023-05-13T01:20:19.313Z,11.18
2023-05-13T01:22:47.250Z,12.93
2023-05-13T01:25:14.755Z,10.73
2023-05-13T01:27:42.512Z,11.63
2023-05-13T01:30:10.236Z,18.13
2023-05-13T01:32:38.776Z,12.82
2023-05-13T01:35:07.083Z,14.98
2023-05-13T01:37:34.782Z,14.38
2023-05-13T01:40:04.481Z,25.88
2023-05-13T01:42:35.187Z,11.60
2023-05-13T01:45:03.111Z,13.52
2023-05-13T01:47:30.786Z,10.48
2023-05-13T01:49:58.126Z,13.38
2023-05-13T01:52:25.731Z,10.13
2023-05-13T01:54:53.059Z,11.38
2023-05-13T01:57:20.996Z,16.30
2023-05-13T01:59:48.326Z,12.18
2023-05-13T02:02:16.047Z,17.80
2023-05-13T02:04:43.424Z,12.05
2023-05-13T02:07:11.125Z,12.85
2023-05-13T02:09:38.564Z,11.93
2023-05-13T02:12:06.358Z,10.07
2023-05-13T02:14:33.790Z,14.75
2023-05-13T02:17:01.452Z,18.17
2023-05-13T02:19:28.732Z,13.38
2023-05-13T02:21:56.510Z,12.60
2023-05-13T02:24:23.895Z,8.13
2023-05-13T02:26:51.601Z,10.30
2023-05-13T02:29:18.920Z,13.00
2023-05-13T02:31:46.500Z,11.43
2023-05-13T02:34:13.857Z,15.60
2023-05-13T02:36:41.483Z,13.13
2023-05-13T02:39:08.770Z,15.05
2023-05-13T02:41:36.614Z,9.95
2023-05-13T02:44:03.952Z,13.82
2023-05-13T02:46:31.787Z,13.45
2023-05-13T02:48:59.624Z,11.38
2023-05-13T02:51:27.236Z,16.23
2023-05-13T02:53:54.559Z,18.15
2023-05-13T02:56:22.148Z,12.45
2023-05-13T02:58:49.470Z,16.13
2023-05-13T03:01:17.241Z,11.48
2023-05-13T03:03:44.648Z,18.73
2023-05-13T03:06:12.350Z,21.95
2023-05-13T03:08:39.749Z,14.25
2023-05-13T03:11:07.313Z,15.82
2023-05-13T03:13:34.634Z,10.93
2023-05-13T03:16:02.322Z,17.33
2023-05-13T03:18:31.543Z,18.45
2023-05-13T03:20:59.230Z,15.65
2023-05-13T03:23:26.530Z,10.55
2023-05-13T03:25:54.095Z,15.70
2023-05-13T03:28:21.380Z,15.20
2023-05-13T03:30:49.036Z,10.13
2023-05-13T03:33:16.355Z,11.15
2023-05-13T03:35:44.024Z,12.73
2023-05-13T03:38:11.285Z,12.90
2023-05-13T03:40:39.010Z,19.83
2023-05-13T03:43:06.332Z,12.65
2023-05-13T03:45:33.982Z,11.85
2023-05-13T03:48:01.623Z,11.23
2023-05-13T03:50:29.531Z,10.40
2023-05-13T03:52:57.081Z,14.35
2023-05-13T03:55:24.759Z,16.55
2023-05-13T03:57:52.018Z,10.40
2023-05-13T04:00:20.019Z,11.75
2023-05-13T04:02:47.588Z,9.07
2023-05-13T04:05:15.407Z,8.98
2023-05-13T04:07:42.815Z,9.38
2023-05-13T04:10:13.780Z,9.55
2023-05-13T04:12:42.766Z,12.38
2023-05-13T04:15:10.555Z,13.25
2023-05-13T04:17:37.913Z,9.80
2023-05-13T04:20:05.961Z,9.82
2023-05-13T04:22:33.269Z,18.88
2023-05-13T04:25:00.846Z,9.45
2023-05-13T04:27:28.212Z,7.75
2023-05-13T04:29:55.839Z,8.82
2023-05-13T04:32:23.549Z,11.48
2023-05-13T04:34:51.811Z,9.57
2023-05-13T04:37:19.686Z,8.88
2023-05-13T04:39:47.486Z,15.85
2023-05-13T04:42:15.365Z,12.00
2023-05-13T04:44:43.325Z,13.20
2023-05-13T04:47:10.807Z,10.50
2023-05-13T04:49:38.566Z,13.52
2023-05-13T04:52:06.718Z,13.52
2023-05-13T04:54:39.432Z,10.80
2023-05-13T04:57:07.029Z,12.50
2023-05-13T04:59:35.462Z,17.42
2023-05-13T05:02:02.896Z,8.05
2023-05-13T05:04:30.835Z,11.52
2023-05-13T05:06:58.162Z,11.50
2023-05-13T05:09:25.975Z,15.77
2023-05-13T05:11:53.314Z,11.20
2023-05-13T05:14:21.025Z,14.80
2023-05-13T05:16:48.453Z,11.35
2023-05-13T05:19:16.420Z,11.65
2023-05-13T05:21:43.778Z,11.38
2023-05-13T05:24:11.580Z,10.38
2023-05-13T05:26:39.801Z,16.27
2023-05-13T05:29:08.270Z,20.50
2023-05-13T05:31:35.937Z,9.57
2023-05-13T05:34:03.852Z,11.00
2023-05-13T05:36:31.354Z,11.20
2023-05-13T05:38:59.086Z,10.68
2023-05-13T05:41:26.526Z,17.50
2023-05-13T05:43:54.400Z,11.90
2023-05-13T05:46:23.044Z,17.60
2023-05-13T05:48:50.472Z,11.77
2023-05-13T05:51:17.955Z,16.08
2023-05-13T05:53:45.744Z,16.65
2023-05-13T05:56:13.144Z,11.70
2023-05-13T05:58:40.890Z,13.52
2023-05-13T06:01:08.216Z,14.32
2023-05-13T06:03:36.017Z,10.88
2023-05-13T06:06:03.905Z,12.25
2023-05-13T06:08:31.561Z,12.13
2023-05-13T06:10:59.072Z,15.07
2023-05-13T06:13:26.892Z,15.23
2023-05-13T06:15:54.319Z,15.00
2023-05-13T06:18:22.778Z,11.32
2023-05-13T06:20:50.317Z,10.45
2023-05-13T06:23:18.055Z,11.77
2023-05-13T06:25:45.688Z,9.13
2023-05-13T06:28:13.464Z,14.73
2023-05-13T06:30:40.987Z,15.35
2023-05-13T06:33:10.572Z,11.73
2023-05-13T06:35:38.145Z,14.30
2023-05-13T06:38:06.073Z,9.23
2023-05-13T06:40:34.188Z,9.27
2023-05-13T06:43:02.015Z,19.83
2023-05-13T06:45:29.446Z,11.82
2023-05-13T06:47:57.709Z,7.40
2023-05-13T06:50:25.209Z,13.45
2023-05-13T06:52:52.991Z,12.80
2023-05-13T06:55:20.499Z,9.90
2023-05-13T06:57:48.324Z,10.38
2023-05-13T07:00:16.223Z,10.32
2023-05-13T07:02:44.028Z,8.55
2023-05-13T07:05:12.221Z,5.90
2023-05-13T07:07:39.902Z,7.72
2023-05-13T07:10:07.314Z,9.90
2023-05-13T07:12:35.024Z,8.27
2023-05-13T07:15:02.569Z,6.47
2023-05-13T07:17:31.372Z,5.30
2023-05-13T07:19:59.140Z,4.80
2023-05-13T07:22:27.809Z,10.23
2023-05-13T07:24:55.133Z,6.45
2023-05-13T07:27:22.731Z,7.57
2023-05-13T07:29:50.053Z,10.15
2023-05-13T07:32:17.713Z,8.38
2023-05-13T07:34:45.164Z,12.57
2023-05-13T07:37:13.024Z,5.63
2023-05-13T07:39:40.605Z,5.13
2023-05-13T07:42:08.347Z,7.88
2023-05-13T07:44:35.689Z,7.50
2023-05-13T07:47:03.318Z,6.30
2023-05-13T07:49:30.676Z,6.63
2023-05-13T07:51:58.321Z,5.75
2023-05-13T07:54:25.602Z,9.88
2023-05-13T07:56:53.260Z,9.13
2023-05-13T07:59:20.734Z,7.18
2023-05-13T08:01:48.391Z,5.78
2023-05-13T08:04:15.916Z,8.10
2023-05-13T08:06:44.051Z,5.20
2023-05-13T08:09:12.273Z,6.43
2023-05-13T08:11:39.861Z,7.47
2023-05-13T08:14:07.317Z,6.10
2023-05-13T08:16:38.138Z,5.93
2023-05-13T08:19:05.566Z,8.10
2023-05-13T08:21:33.362Z,5.85
2023-05-13T08:24:00.640Z,6.78
2023-05-13T08:26:28.820Z,6.38
2023-05-13T08:28:57.163Z,9.52
2023-05-13T08:31:25.411Z,11.02
2023-05-13T08:33:53.556Z,6.28
2023-05-13T08:36:26.216Z,3.50
2023-05-13T08:38:53.519Z,5.20
2023-05-13T08:41:22.834Z,4.07
2023-05-13T08:43:50.567Z,4.90
2023-05-13T08:46:19.363Z,4.55
2023-05-13T08:48:46.968Z,5.95
2023-05-13T08:51:14.530Z,3.90
2023-05-13T08:53:42.170Z,5.90
2023-05-13T08:56:09.850Z,5.60
2023-05-13T08:58:37.299Z,4.40
2023-05-13T09:01:07.254Z,4.57
2023-05-13T09:03:35.811Z,3.78
2023-05-13T09:06:03.618Z,5.13
2023-05-13T09:08:32.615Z,4.55
2023-05-13T09:11:00.834Z,9.30
2023-05-13T09:13:28.152Z,6.07
2023-05-13T09:15:55.870Z,7.60
2023-05-13T09:18:30.296Z,4.55
2023-05-13T09:20:58.115Z,5.03
2023-05-13T09:23:25.385Z,6.80
2023-05-13T09:25:53.274Z,9.70
2023-05-13T09:28:20.547Z,7.53
2023-05-13T09:30:54.928Z,5.25
2023-05-13T09:33:22.707Z,4.90
2023-05-13T09:35:52.958Z,5.32
2023-05-13T09:38:21.930Z,5.63
2023-05-13T09:40:55.565Z,8.07
2023-05-13T09:43:23.892Z,8.10
2023-05-13T09:45:55.031Z,5.22
2023-05-13T09:48:27.098Z,6.80
2023-05-13T09:50:56.152Z,4.43
2023-05-13T09:53:23.701Z,6.95
2023-05-13T09:55:54.895Z,4.13
2023-05-13T09:58:22.734Z,4.57
2023-05-13T10:00:50.415Z,8.25
2023-05-13T10:03:17.731Z,8.07
2023-05-13T10:05:45.954Z,6.47
2023-05-13T10:08:15.360Z,6.00
2023-05-13T10:10:46.491Z,7.80
2023-05-13T10:13:17.889Z,4.60
2023-05-13T10:15:52.699Z,7.05
2023-05-13T10:18:20.925Z,6.55
2023-05-13T10:20:53.643Z,10.73
2023-05-13T10:23:22.447Z,12.48
2023-05-13T10:25:51.942Z,4.68
2023-05-13T10:28:19.569Z,5.10
2023-05-13T10:30:47.691Z,8.25
2023-05-13T10:33:16.785Z,7.55
2023-05-13T10:35:59.684Z,4.28
2023-05-13T10:38:53.337Z,7.07
2023-05-13T10:41:39.407Z,5.00
2023-05-13T10:44:09.756Z,5.88
2023-05-13T10:46:39.683Z,5.90
2023-05-13T10:49:15.790Z,6.72
2023-05-13T10:51:50.388Z,7.15
2023-05-13T10:54:21.654Z,6.07
2023-05-13T10:56:59.339Z,13.60
2023-05-13T10:59:30.393Z,8.60
2023-05-13T11:01:58.374Z,4.80
2023-05-13T11:04:25.750Z,8.40
2023-05-13T11:06:53.612Z,11.40
2023-05-13T11:09:24.016Z,4.35
2023-05-13T11:11:55.352Z,4.97
2023-05-13T11:14:23.573Z,6.82
2023-05-13T11:17:04.401Z,6.65
2023-05-13T11:19:37.958Z,11.20
2023-05-13T11:22:24.276Z,7.47
2023-05-13T11:25:04.056Z,4.20
2023-05-13T11:27:34.031Z,6.25
2023-05-13T11:30:01.329Z,7.72
2023-05-13T11:32:47.521Z,6.65
2023-05-13T11:35:19.864Z,13.55
2023-05-13T11:37:49.100Z,6.75
2023-05-13T11:40:35.373Z,5.93
2023-05-13T11:43:05.074Z,3.90
2023-05-13T11:45:33.385Z,4.65
2023-05-13T11:48:18.280Z,6.07
2023-05-13T11:50:45.600Z,7.22
2023-05-13T11:53:19.980Z,5.85
2023-05-13T11:55:47.283Z,6.72
2023-05-13T11:58:17.882Z,6.72
2023-05-13T12:00:46.634Z,9.18
2023-05-13T12:03:16.136Z,8.07
2023-05-13T12:05:44.697Z,8.38
2023-05-13T12:08:12.480Z,3.08
2023-05-13T12:10:49.152Z,4.57
2023-05-13T12:13:17.108Z,12.48
2023-05-13T12:15:44.414Z,8.15
2023-05-13T12:18:12.281Z,8.35
2023-05-13T12:20:39.662Z,4.07
2023-05-13T12:23:07.298Z,4.00
2023-05-13T12:25:40.550Z,7.97
2023-05-13T12:28:18.599Z,6.47
2023-05-13T12:31:02.619Z,7.68
2023-05-13T12:33:43.223Z,12.00
2023-05-13T12:36:16.540Z,8.75
2023-05-13T12:39:01.485Z,8.88
2023-05-13T12:41:34.765Z,7.80
2023-05-13T12:44:03.974Z,5.75
2023-05-13T12:46:31.579Z,6.40
2023-05-13T12:49:00.285Z,5.55
2023-05-13T12:51:27.606Z,10.40
2023-05-13T12:53:55.653Z,7.43
2023-05-13T12:56:23.373Z,7.57
2023-05-13T12:58:51.512Z,7.32
2023-05-13T13:01:18.965Z,6.50
2023-05-13T13:03:46.716Z,9.30
2023-05-13T13:06:14.239Z,9.80
2023-05-13T13:08:42.330Z,5.03
2023-05-13T13:11:09.869Z,6.13
2023-05-13T13:13:39.142Z,12.38
2023-05-13T13:16:07.321Z,10.23
2023-05-13T13:18:34.935Z,6.25
2023-05-13T13:21:02.640Z,7.70
2023-05-13T13:23:30.259Z,7.53
2023-05-13T13:26:00.829Z,9.63
2023-05-13T13:28:28.709Z,6.38
2023-05-13T13:30:56.214Z,10.43
2023-05-13T13:33:23.865Z,7.18
2023-05-13T13:35:51.216Z,26.98
2023-05-13T13:38:18.790Z,8.48
2023-05-13T13:40:46.141Z,8.73
2023-05-13T13:43:13.988Z,12.18
2023-05-13T13:45:41.327Z,12.10
2023-05-13T13:48:09.021Z,8.65
2023-05-13T13:50:36.406Z,12.40
2023-05-13T13:53:04.023Z,7.85
2023-05-13T13:55:31.353Z,9.20
2023-05-13T13:57:58.942Z,7.95
2023-05-13T14:00:26.440Z,9.55
2023-05-13T14:02:54.157Z,8.68
2023-05-13T14:05:21.569Z,8.88
2023-05-13T14:07:53.731Z,9.93
2023-05-13T14:10:21.297Z,13.02
2023-05-13T14:12:49.061Z,9.20
2023-05-13T14:15:16.377Z,8.52
2023-05-13T14:17:44.226Z,9.00
2023-05-13T14:20:12.200Z,6.85
2023-05-13T14:22:39.873Z,10.00
2023-05-13T14:25:09.001Z,15.00
2023-05-13T14:27:37.004Z,11.68
2023-05-13T14:30:05.350Z,11.27
2023-05-13T14:32:33.683Z,4.90
2023-05-13T14:35:01.037Z,8.27
2023-05-13T14:37:28.690Z,10.63
2023-05-13T14:39:56.651Z,6.82
2023-05-13T14:42:24.263Z,5.45
2023-05-13T14:44:51.541Z,7.80
2023-05-13T14:47:19.143Z,8.38
2023-05-13T14:49:46.625Z,6.80
2023-05-13T14:52:14.206Z,11.65
2023-05-13T14:54:41.476Z,6.57
2023-05-13T14:57:09.096Z,12.38
2023-05-13T14:59:36.393Z,12.57
2023-05-13T15:02:04.584Z,5.80
2023-05-13T15:04:32.066Z,7.85
2023-05-13T15:06:59.870Z,4.60
2023-05-13T15:09:27.267Z,14.98
2023-05-13T15:11:54.830Z,13.20
2023-05-13T15:14:25.924Z,8.57
2023-05-13T15:16:54.053Z,6.30
2023-05-13T15:19:21.466Z,11.05
2023-05-13T15:21:49.039Z,7.07
2023-05-13T15:24:16.335Z,9.27
2023-05-13T15:26:43.908Z,9.60
2023-05-13T15:29:11.252Z,10.27
2023-05-13T15:31:38.939Z,10.10
2023-05-13T15:34:06.277Z,15.38
2023-05-13T15:36:35.431Z,5.70
2023-05-13T15:39:02.904Z,10.07
2023-05-13T15:41:30.471Z,8.05
2023-05-13T15:43:57.835Z,7.82
2023-05-13T15:46:26.201Z,6.47
2023-05-13T15:48:53.563Z,7.30
2023-05-13T15:51:21.237Z,6.38
2023-05-13T15:53:48.943Z,8.05
2023-05-13T15:56:16.220Z,14.35
2023-05-13T15:58:43.804Z,11.90
2023-05-13T16:01:11.252Z,5.63
2023-05-13T16:03:38.952Z,4.15
2023-05-13T16:06:06.250Z,7.22
2023-05-13T16:08:33.834Z,12.50
2023-05-13T16:11:01.160Z,5.13
2023-05-13T16:13:28.770Z,6.85
2023-05-13T16:15:56.312Z,6.45
2023-05-13T16:18:24.357Z,10.60
2023-05-13T16:20:52.334Z,16.02
2023-05-13T16:23:19.929Z,7.38
2023-05-13T16:25:47.298Z,14.27
2023-05-13T16:28:14.885Z,17.65
2023-05-13T16:30:42.630Z,17.15
2023-05-13T16:33:11.398Z,6.60
2023-05-13T16:35:38.759Z,8.73
2023-05-13T16:38:06.433Z,6.47
2023-05-13T16:40:33.925Z,9.02
2023-05-13T16:43:03.727Z,13.23
2023-05-13T16:45:31.446Z,18.73
2023-05-13T16:47:59.169Z,12.60
2023-05-13T16:50:26.832Z,12.90
2023-05-13T16:52:54.545Z,20.27
2023-05-13T16:55:22.527Z,14.88
2023-05-13T16:57:50.148Z,7.85
2023-05-13T17:00:17.656Z,10.88
2023-05-13T17:02:45.435Z,7.47
2023-05-13T17:05:12.970Z,21.63
2023-05-13T17:07:40.596Z,14.20
2023-05-13T17:10:08.267Z,30.80
2023-05-13T17:12:35.896Z,10.98
2023-05-13T17:15:04.059Z,14.48
2023-05-13T17:17:31.690Z,13.60
2023-05-13T17:19:59.004Z,13.27
2023-05-13T17:22:26.647Z,43.15
2023-05-13T17:24:53.927Z,18.92
2023-05-13T17:27:21.541Z,18.20
2023-05-13T17:29:48.931Z,24.00
2023-05-13T17:32:16.587Z,17.67
2023-05-13T17:34:43.886Z,15.05
2023-05-13T17:37:11.476Z,8.05
2023-05-13T17:39:38.731Z,15.85
2023-05-13T17:42:06.414Z,13.80
2023-05-13T17:44:33.733Z,10.23
2023-05-13T17:47:01.824Z,8.93
2023-05-13T17:49:29.072Z,6.65
2023-05-13T17:51:56.669Z,7.68
2023-05-13T17:54:24.039Z,16.52
2023-05-13T17:56:51.696Z,9.38
2023-05-13T17:59:18.950Z,9.15
2023-05-13T18:01:46.620Z,8.30
2023-05-13T18:04:13.975Z,6.95
2023-05-13T18:06:41.548Z,9.25
2023-05-13T18:09:09.229Z,12.82
2023-05-13T18:11:36.819Z,5.45
2023-05-13T18:14:04.167Z,10.70
2023-05-13T18:16:31.841Z,6.03
2023-05-13T18:18:59.196Z,9.70
2023-05-13T18:21:28.889Z,6.75
2023-05-13T18:23:56.606Z,4.50
2023-05-13T18:26:24.428Z,4.65
2023-05-13T18:28:51.791Z,3.00
2023-05-13T18:31:19.387Z,5.28
2023-05-13T18:33:46.695Z,9.32
2023-05-13T18:36:14.431Z,4.75
2023-05-13T18:38:41.797Z,4.47
2023-05-13T18:41:09.425Z,4.22
2023-05-13T18:43:36.707Z,9.00
2023-05-13T18:46:04.351Z,3.35
2023-05-13T18:48:31.673Z,5.78
2023-05-13T18:50:59.550Z,4.30
2023-05-13T18:53:26.943Z,5.28
2023-05-13T18:55:54.809Z,9.60
2023-05-13T18:58:22.303Z,9.88
2023-05-13T19:00:50.139Z,11.00
2023-05-13T19:03:17.898Z,8.15
2023-05-13T19:05:46.169Z,7.22
2023-05-13T19:08:13.579Z,9.32
2023-05-13T19:10:41.271Z,5.90
2023-05-13T19:13:08.674Z,8.35
2023-05-13T19:15:36.648Z,9.30
2023-05-13T19:18:04.116Z,6.95
2023-05-13T19:20:31.851Z,15.98
2023-05-13T19:22:59.177Z,32.10
2023-05-13T19:25:26.792Z,25.10
2023-05-13T19:27:54.132Z,13.48
2023-05-13T19:30:21.934Z,17.27
2023-05-13T19:32:49.538Z,32.85
2023-05-13T19:35:17.241Z,22.02
2023-05-13T19:37:44.621Z,19.15
2023-05-13T19:40:12.327Z,23.35
2023-05-13T19:42:39.688Z,10.30
2023-05-13T19:45:07.913Z,29.27
2023-05-13T19:47:35.528Z,12.50
2023-05-13T19:50:03.395Z,5.38
2023-05-13T19:52:30.836Z,9.95
2023-05-13T19:54:58.621Z,12.10
2023-05-13T19:57:27.518Z,23.48
2023-05-13T19:59:57.722Z,28.90
2023-05-13T20:02:26.303Z,41.85
2023-05-13T20:04:54.001Z,16.58
2023-05-13T20:07:21.303Z,13.27
2023-05-13T20:09:48.902Z,13.00
2023-05-13T20:12:16.171Z,11.95
2023-05-13T20:14:44.027Z,8.73
2023-05-13T20:17:12.176Z,8.80
2023-05-13T20:19:39.832Z,9.30
2023-05-13T20:22:07.132Z,18.23
2023-05-13T20:24:34.707Z,12.07
2023-05-13T20:27:02.027Z,9.70
2023-05-13T20:29:34.378Z,17.58
2023-05-13T20:32:01.797Z,11.88
2023-05-13T20:34:29.419Z,16.63
2023-05-13T20:36:56.940Z,16.05
2023-05-13T20:39:24.758Z,17.33
2023-05-13T20:41:52.321Z,15.25
2023-05-13T20:44:20.006Z,221.88
2023-05-13T20:46:49.110Z,177.27
2023-05-13T20:49:17.007Z,122.78
2023-05-13T20:51:44.985Z,92.68
2023-05-13T20:54:12.887Z,23.73
2023-05-13T20:56:40.484Z,11.05
2023-05-13T20:59:08.541Z,12.82
2023-05-13T21:01:36.367Z,10.95
2023-05-13T21:04:05.988Z,10.45
2023-05-13T21:06:33.546Z,6.75
2023-05-13T21:09:01.151Z,9.57
2023-05-13T21:11:28.439Z,11.30
2023-05-13T21:13:56.084Z,10.82
2023-05-13T21:16:23.454Z,12.63
2023-05-13T21:18:51.189Z,24.17
2023-05-13T21:21:18.550Z,22.05
2023-05-13T21:23:47.662Z,22.58
2023-05-13T21:26:14.984Z,11.98
2023-05-13T21:28:42.555Z,12.90
2023-05-13T21:31:09.949Z,16.70
2023-05-13T21:33:37.588Z,28.73
2023-05-13T21:36:04.979Z,14.15
2023-05-13T21:38:32.701Z,36.28
2023-05-13T21:41:00.018Z,63.15
2023-05-13T21:43:27.594Z,51.13
2023-05-13T21:45:54.893Z,44.30
2023-05-13T21:48:22.657Z,29.85
2023-05-13T21:50:50.401Z,57.70
2023-05-13T21:53:18.225Z,60.05
2023-05-13T21:55:45.925Z,52.10
2023-05-13T21:58:13.575Z,22.80
2023-05-13T22:00:41.753Z,18.55
2023-05-13T22:03:09.491Z,16.08
2023-05-13T22:05:42.197Z,10.38
2023-05-13T22:08:10.591Z,8.80
2023-05-13T22:10:38.330Z,11.27
2023-05-13T22:13:06.305Z,9.27
2023-05-13T22:15:33.669Z,8.38
2023-05-13T22:18:01.383Z,11.40
2023-05-13T22:20:28.763Z,11.68
2023-05-13T22:22:56.322Z,12.32
2023-05-13T22:25:23.652Z,13.13
2023-05-13T22:27:51.448Z,12.13
2023-05-13T22:30:18.961Z,9.98
2023-05-13T22:32:46.521Z,10.25
2023-05-13T22:35:13.869Z,8.50
2023-05-13T22:37:41.516Z,20.27
2023-05-13T22:40:10.402Z,18.92
2023-05-13T22:42:38.029Z,17.48
2023-05-13T22:45:05.549Z,13.35
2023-05-13T22:47:33.113Z,16.60
2023-05-13T22:50:00.536Z,17.27
2023-05-13T22:52:28.082Z,16.65
2023-05-13T22:54:55.454Z,14.50
2023-05-13T22:57:23.056Z,16.65
2023-05-13T22:59:50.551Z,13.02
2023-05-13T23:02:18.150Z,8.30
2023-05-13T23:04:45.493Z,15.23
2023-05-13T23:07:13.073Z,16.50
2023-05-13T23:09:40.413Z,16.90
2023-05-13T23:12:08.413Z,12.45
2023-05-13T23:14:35.938Z,17.80
2023-05-13T23:17:03.560Z,15.02
2023-05-13T23:19:30.914Z,10.73
2023-05-13T23:21:58.564Z,6.63
2023-05-13T23:24:25.896Z,12.18
2023-05-13T23:26:53.696Z,12.38
2023-05-13T23:29:21.086Z,11.00
2023-05-13T23:31:48.711Z,15.80
2023-05-13T23:34:16.010Z,10.23
2023-05-13T23:36:43.579Z,11.10
2023-05-13T23:39:10.920Z,16.45
2023-05-13T23:41:38.468Z,10.50
2023-05-13T23:44:05.810Z,13.27
2023-05-13T23:46:33.423Z,17.83
2023-05-13T23:49:00.684Z,10.23
2023-05-13T23:51:28.362Z,14.10
2023-05-13T23:53:55.700Z,14.75
2023-05-13T23:56:23.232Z,14.68
2023-05-13T23:58:50.716Z,12.27
